sensor_id;sensor_type;location;lat;lon;timestamp;temperature;humidity
21678;DHT22;11000;50.360;7.582;2023-07-31T00:01:37;19.70;99.90
21678;DHT22;11000;50.360;7.582;2023-07-31T00:03:58;19.70;99.90
21678;DHT22;11000;50.360;7.582;2023-07-31T00:06:19;19.70;99.90
21678;DHT22;11000;50.360;7.582;2023-07-31T00:08:39;19.70;99.90
21678;DHT22;11000;50.360;7.582;2023-07-31T00:11:00;19.70;99.90
21678;DHT22;11000;50.360;7.582;2023-07-31T00:13:20;19.70;99.90
21678;DHT22;11000;50.360;7.582;2023-07-31T00:15:41;19.60;99.90
21678;DHT22;11000;50.360;7.582;2023-07-31T00:18:01;19.70;99.90
21678;DHT22;11000;50.360;7.582;2023-07-31T00:20:23;19.60;99.90
21678;DHT22;11000;50.360;7.582;2023-07-31T00:22:43;19.60;99.90
21678;DHT22;11000;50.360;7.582;2023-07-31T00:25:04;19.60;99.90
21678;DHT22;11000;50.360;7.582;2023-07-31T00:27:26;19.60;99.90
21678;DHT22;11000;50.360;7.582;2023-07-31T00:29:47;19.60;99.90
21678;DHT22;11000;50.360;7.582;2023-07-31T00:32:07;19.50;99.90
21678;DHT22;11000;50.360;7.582;2023-07-31T00:34:28;19.50;99.90
21678;DHT22;11000;50.360;7.582;2023-07-31T00:36:48;19.50;99.90
21678;DHT22;11000;50.360;7.582;2023-07-31T00:39:09;19.40;99.90
21678;DHT22;11000;50.360;7.582;2023-07-31T00:41:29;19.40;99.90
21678;DHT22;11000;50.360;7.582;2023-07-31T00:43:50;19.40;99.90
21678;DHT22;11000;50.360;7.582;2023-07-31T00:46:10;19.40;99.90
21678;DHT22;11000;50.360;7.582;2023-07-31T00:48:32;19.40;99.90
21678;DHT22;11000;50.360;7.582;2023-07-31T00:50:52;19.40;99.90
21678;DHT22;11000;50.360;7.582;2023-07-31T00:53:13;19.40;99.90
21678;DHT22;11000;50.360;7.582;2023-07-31T00:55:34;19.40;99.90
21678;DHT22;11000;50.360;7.582;2023-07-31T00:57:55;19.30;99.90
21678;DHT22;11000;50.360;7.582;2023-07-31T01:00:16;19.40;99.90
21678;DHT22;11000;50.360;7.582;2023-07-31T01:02:36;19.30;99.90
21678;DHT22;11000;50.360;7.582;2023-07-31T01:04:57;19.40;99.90
21678;DHT22;11000;50.360;7.582;2023-07-31T01:07:31;19.40;99.90
21678;DHT22;11000;50.360;7.582;2023-07-31T01:12:20;19.40;99.90
21678;DHT22;11000;50.360;7.582;2023-07-31T01:14:41;19.40;99.90
21678;DHT22;11000;50.360;7.582;2023-07-31T01:17:10;19.40;99.90
21678;DHT22;11000;50.360;7.582;2023-07-31T01:19:31;19.40;99.90
21678;DHT22;11000;50.360;7.582;2023-07-31T01:22:12;19.40;99.90
21678;DHT22;11000;50.360;7.582;2023-07-31T01:24:49;19.40;99.90
21678;DHT22;11000;50.360;7.582;2023-07-31T01:27:20;19.40;99.90
21678;DHT22;11000;50.360;7.582;2023-07-31T01:30:05;19.40;99.90
21678;DHT22;11000;50.360;7.582;2023-07-31T01:32:31;19.40;99.90
21678;DHT22;11000;50.360;7.582;2023-07-31T01:34:53;19.40;99.90
21678;DHT22;11000;50.360;7.582;2023-07-31T01:37:14;19.40;99.90
21678;DHT22;11000;50.360;7.582;2023-07-31T01:39:35;19.40;99.90
21678;DHT22;11000;50.360;7.582;2023-07-31T01:41:55;19.30;99.90
21678;DHT22;11000;50.360;7.582;2023-07-31T01:44:16;19.40;99.90
21678;DHT22;11000;50.360;7.582;2023-07-31T01:46:36;19.30;99.90
21678;DHT22;11000;50.360;7.582;2023-07-31T01:48:57;19.30;99.90
21678;DHT22;11000;50.360;7.582;2023-07-31T01:51:17;19.30;99.90
21678;DHT22;11000;50.360;7.582;2023-07-31T01:53:38;19.30;99.90
21678;DHT22;11000;50.360;7.582;2023-07-31T01:55:58;19.30;99.90
21678;DHT22;11000;50.360;7.582;2023-07-31T01:58:19;19.30;99.90
21678;DHT22;11000;50.360;7.582;2023-07-31T02:00:39;19.30;99.90
21678;DHT22;11000;50.360;7.582;2023-07-31T02:03:00;19.20;99.90
21678;DHT22;11000;50.360;7.582;2023-07-31T02:05:20;19.30;99.90
21678;DHT22;11000;50.360;7.582;2023-07-31T02:07:41;19.20;99.90
21678;DHT22;11000;50.360;7.582;2023-07-31T02:10:01;19.20;99.90
21678;DHT22;11000;50.360;7.582;2023-07-31T02:12:22;19.20;99.90
21678;DHT22;11000;50.360;7.582;2023-07-31T02:14:42;19.20;99.90
21678;DHT22;11000;50.360;7.582;2023-07-31T02:17:03;19.20;99.90
21678;DHT22;11000;50.360;7.582;2023-07-31T02:19:23;19.10;99.90
21678;DHT22;11000;50.360;7.582;2023-07-31T02:21:44;19.10;99.90
21678;DHT22;11000;50.360;7.582;2023-07-31T02:24:04;19.10;99.90
21678;DHT22;11000;50.360;7.582;2023-07-31T02:26:25;19.10;99.90
21678;DHT22;11000;50.360;7.582;2023-07-31T02:28:46;19.00;99.90
21678;DHT22;11000;50.360;7.582;2023-07-31T02:31:06;19.00;99.90
21678;DHT22;11000;50.360;7.582;2023-07-31T02:33:27;19.00;99.90
21678;DHT22;11000;50.360;7.582;2023-07-31T02:35:47;19.00;99.90
21678;DHT22;11000;50.360;7.582;2023-07-31T02:38:07;19.00;99.90
21678;DHT22;11000;50.360;7.582;2023-07-31T02:40:28;19.00;99.90
21678;DHT22;11000;50.360;7.582;2023-07-31T02:42:48;19.00;99.90
21678;DHT22;11000;50.360;7.582;2023-07-31T02:45:09;19.00;99.90
21678;DHT22;11000;50.360;7.582;2023-07-31T02:47:30;19.00;99.90
21678;DHT22;11000;50.360;7.582;2023-07-31T02:49:50;18.90;99.90
21678;DHT22;11000;50.360;7.582;2023-07-31T02:52:11;18.90;99.90
21678;DHT22;11000;50.360;7.582;2023-07-31T02:54:31;18.90;99.90
21678;DHT22;11000;50.360;7.582;2023-07-31T02:56:51;18.90;99.90
21678;DHT22;11000;50.360;7.582;2023-07-31T02:59:12;18.90;99.90
21678;DHT22;11000;50.360;7.582;2023-07-31T03:01:32;18.90;99.90
21678;DHT22;11000;50.360;7.582;2023-07-31T03:03:53;18.90;99.90
21678;DHT22;11000;50.360;7.582;2023-07-31T03:06:13;18.90;99.90
21678;DHT22;11000;50.360;7.582;2023-07-31T03:08:34;18.90;99.90
21678;DHT22;11000;50.360;7.582;2023-07-31T03:10:56;18.90;99.90
21678;DHT22;11000;50.360;7.582;2023-07-31T03:13:16;18.90;99.90
21678;DHT22;11000;50.360;7.582;2023-07-31T03:15:37;18.80;99.90
21678;DHT22;11000;50.360;7.582;2023-07-31T03:17:57;18.80;99.90
21678;DHT22;11000;50.360;7.582;2023-07-31T03:20:18;18.80;99.90
21678;DHT22;11000;50.360;7.582;2023-07-31T03:22:38;18.80;99.90
21678;DHT22;11000;50.360;7.582;2023-07-31T03:24:59;18.80;99.90
21678;DHT22;11000;50.360;7.582;2023-07-31T03:27:19;18.80;99.90
21678;DHT22;11000;50.360;7.582;2023-07-31T03:29:40;18.70;99.90
21678;DHT22;11000;50.360;7.582;2023-07-31T03:32:00;18.70;99.90
21678;DHT22;11000;50.360;7.582;2023-07-31T03:34:21;18.70;99.90
21678;DHT22;11000;50.360;7.582;2023-07-31T03:36:41;18.70;99.90
21678;DHT22;11000;50.360;7.582;2023-07-31T03:39:02;18.80;99.90
21678;DHT22;11000;50.360;7.582;2023-07-31T03:41:23;18.70;99.90
21678;DHT22;11000;50.360;7.582;2023-07-31T03:43:46;18.70;99.90
21678;DHT22;11000;50.360;7.582;2023-07-31T03:46:06;18.70;99.90
21678;DHT22;11000;50.360;7.582;2023-07-31T03:48:27;18.70;99.90
21678;DHT22;11000;50.360;7.582;2023-07-31T03:50:48;18.70;99.90
21678;DHT22;11000;50.360;7.582;2023-07-31T03:53:08;18.70;99.90
21678;DHT22;11000;50.360;7.582;2023-07-31T03:55:29;18.70;99.90
21678;DHT22;11000;50.360;7.582;2023-07-31T03:57:49;18.70;99.90
21678;DHT22;11000;50.360;7.582;2023-07-31T04:00:10;18.70;99.90
21678;DHT22;11000;50.360;7.582;2023-07-31T04:02:31;18.70;99.90
21678;DHT22;11000;50.360;7.582;2023-07-31T04:04:51;18.70;99.90
21678;DHT22;11000;50.360;7.582;2023-07-31T04:07:11;18.70;99.90
21678;DHT22;11000;50.360;7.582;2023-07-31T04:09:32;18.70;99.90
21678;DHT22;11000;50.360;7.582;2023-07-31T04:11:52;18.70;99.90
21678;DHT22;11000;50.360;7.582;2023-07-31T04:14:13;18.70;99.90
21678;DHT22;11000;50.360;7.582;2023-07-31T04:16:33;18.60;99.90
21678;DHT22;11000;50.360;7.582;2023-07-31T04:18:54;18.60;99.90
21678;DHT22;11000;50.360;7.582;2023-07-31T04:21:14;18.70;99.90
21678;DHT22;11000;50.360;7.582;2023-07-31T04:23:35;18.70;99.90
21678;DHT22;11000;50.360;7.582;2023-07-31T04:25:56;18.70;99.90
21678;DHT22;11000;50.360;7.582;2023-07-31T04:28:16;18.70;99.90
21678;DHT22;11000;50.360;7.582;2023-07-31T04:30:37;18.70;99.90
21678;DHT22;11000;50.360;7.582;2023-07-31T04:32:57;18.70;99.90
21678;DHT22;11000;50.360;7.582;2023-07-31T04:35:18;18.70;99.90
21678;DHT22;11000;50.360;7.582;2023-07-31T04:37:38;18.60;99.90
21678;DHT22;11000;50.360;7.582;2023-07-31T04:39:59;18.60;99.90
21678;DHT22;11000;50.360;7.582;2023-07-31T04:42:19;18.70;99.90
21678;DHT22;11000;50.360;7.582;2023-07-31T04:44:40;18.70;99.90
21678;DHT22;11000;50.360;7.582;2023-07-31T04:47:00;18.70;99.90
21678;DHT22;11000;50.360;7.582;2023-07-31T04:49:22;18.70;99.90
21678;DHT22;11000;50.360;7.582;2023-07-31T04:51:42;18.70;99.90
21678;DHT22;11000;50.360;7.582;2023-07-31T04:54:03;18.70;99.90
21678;DHT22;11000;50.360;7.582;2023-07-31T04:56:23;18.70;99.90
21678;DHT22;11000;50.360;7.582;2023-07-31T04:58:44;18.70;99.90
21678;DHT22;11000;50.360;7.582;2023-07-31T05:01:04;18.70;99.90
21678;DHT22;11000;50.360;7.582;2023-07-31T05:03:25;18.70;99.90
21678;DHT22;11000;50.360;7.582;2023-07-31T05:05:45;18.70;99.90
21678;DHT22;11000;50.360;7.582;2023-07-31T05:08:06;18.70;99.90
21678;DHT22;11000;50.360;7.582;2023-07-31T05:10:26;18.80;99.90
21678;DHT22;11000;50.360;7.582;2023-07-31T05:12:47;18.70;99.90
21678;DHT22;11000;50.360;7.582;2023-07-31T05:15:08;18.70;99.90
21678;DHT22;11000;50.360;7.582;2023-07-31T05:17:28;18.80;99.90
21678;DHT22;11000;50.360;7.582;2023-07-31T05:19:49;18.80;99.90
21678;DHT22;11000;50.360;7.582;2023-07-31T05:22:09;18.80;99.90
21678;DHT22;11000;50.360;7.582;2023-07-31T05:24:30;18.80;99.90
21678;DHT22;11000;50.360;7.582;2023-07-31T05:26:50;18.90;99.90
21678;DHT22;11000;50.360;7.582;2023-07-31T05:29:11;18.90;99.90
21678;DHT22;11000;50.360;7.582;2023-07-31T05:31:31;18.90;99.90
21678;DHT22;11000;50.360;7.582;2023-07-31T05:33:52;19.00;99.90
21678;DHT22;11000;50.360;7.582;2023-07-31T05:36:13;19.00;99.90
21678;DHT22;11000;50.360;7.582;2023-07-31T05:38:33;19.00;99.90
21678;DHT22;11000;50.360;7.582;2023-07-31T05:40:54;19.00;99.90
21678;DHT22;11000;50.360;7.582;2023-07-31T05:43:14;19.10;99.90
21678;DHT22;11000;50.360;7.582;2023-07-31T05:45:36;19.00;99.90
21678;DHT22;11000;50.360;7.582;2023-07-31T05:47:57;19.00;99.90
21678;DHT22;11000;50.360;7.582;2023-07-31T05:50:17;19.00;99.90
21678;DHT22;11000;50.360;7.582;2023-07-31T05:52:38;19.10;99.90
21678;DHT22;11000;50.360;7.582;2023-07-31T05:54:58;19.10;99.90
21678;DHT22;11000;50.360;7.582;2023-07-31T05:57:19;19.10;99.90
21678;DHT22;11000;50.360;7.582;2023-07-31T05:59:39;19.00;99.90
21678;DHT22;11000;50.360;7.582;2023-07-31T06:02:00;19.00;99.90
21678;DHT22;11000;50.360;7.582;2023-07-31T06:04:20;19.00;99.90
21678;DHT22;11000;50.360;7.582;2023-07-31T06:06:41;19.10;99.90
21678;DHT22;11000;50.360;7.582;2023-07-31T06:09:01;19.10;99.90
21678;DHT22;11000;50.360;7.582;2023-07-31T06:11:23;19.20;99.90
21678;DHT22;11000;50.360;7.582;2023-07-31T06:13:44;19.20;99.90
21678;DHT22;11000;50.360;7.582;2023-07-31T06:16:05;19.30;99.90
21678;DHT22;11000;50.360;7.582;2023-07-31T06:18:26;19.40;99.90
21678;DHT22;11000;50.360;7.582;2023-07-31T06:20:47;19.50;99.90
21678;DHT22;11000;50.360;7.582;2023-07-31T06:23:08;19.60;99.90
21678;DHT22;11000;50.360;7.582;2023-07-31T06:25:28;19.70;99.90
21678;DHT22;11000;50.360;7.582;2023-07-31T06:27:49;19.60;99.90
21678;DHT22;11000;50.360;7.582;2023-07-31T06:30:09;19.70;99.90
21678;DHT22;11000;50.360;7.582;2023-07-31T06:32:30;19.80;99.90
21678;DHT22;11000;50.360;7.582;2023-07-31T06:34:51;19.70;99.90
21678;DHT22;11000;50.360;7.582;2023-07-31T06:37:17;19.60;99.90
21678;DHT22;11000;50.360;7.582;2023-07-31T06:39:37;19.50;99.90
21678;DHT22;11000;50.360;7.582;2023-07-31T06:42:04;19.40;99.90
21678;DHT22;11000;50.360;7.582;2023-07-31T06:44:25;19.30;99.90
21678;DHT22;11000;50.360;7.582;2023-07-31T06:46:45;19.30;99.90
21678;DHT22;11000;50.360;7.582;2023-07-31T06:49:06;19.20;99.90
21678;DHT22;11000;50.360;7.582;2023-07-31T06:51:26;19.00;99.90
21678;DHT22;11000;50.360;7.582;2023-07-31T06:53:47;19.00;99.90
21678;DHT22;11000;50.360;7.582;2023-07-31T06:56:07;18.90;99.90
21678;DHT22;11000;50.360;7.582;2023-07-31T06:58:28;18.90;99.90
21678;DHT22;11000;50.360;7.582;2023-07-31T07:00:48;18.80;99.90
21678;DHT22;11000;50.360;7.582;2023-07-31T07:03:12;18.90;99.90
21678;DHT22;11000;50.360;7.582;2023-07-31T07:05:35;18.90;99.90
21678;DHT22;11000;50.360;7.582;2023-07-31T07:07:55;18.80;99.90
21678;DHT22;11000;50.360;7.582;2023-07-31T07:10:16;18.80;99.90
21678;DHT22;11000;50.360;7.582;2023-07-31T07:12:36;18.80;99.90
21678;DHT22;11000;50.360;7.582;2023-07-31T07:14:57;18.90;99.90
21678;DHT22;11000;50.360;7.582;2023-07-31T07:17:21;18.90;99.90
21678;DHT22;11000;50.360;7.582;2023-07-31T07:19:42;19.00;99.90
21678;DHT22;11000;50.360;7.582;2023-07-31T07:22:02;19.00;99.90
21678;DHT22;11000;50.360;7.582;2023-07-31T07:24:23;19.00;99.90
21678;DHT22;11000;50.360;7.582;2023-07-31T07:26:43;19.10;99.90
21678;DHT22;11000;50.360;7.582;2023-07-31T07:29:04;19.20;99.90
21678;DHT22;11000;50.360;7.582;2023-07-31T07:31:28;19.30;99.90
21678;DHT22;11000;50.360;7.582;2023-07-31T07:33:48;19.40;99.90
21678;DHT22;11000;50.360;7.582;2023-07-31T07:36:09;19.40;99.90
21678;DHT22;11000;50.360;7.582;2023-07-31T07:38:30;19.50;99.90
21678;DHT22;11000;50.360;7.582;2023-07-31T07:40:51;19.60;99.90
21678;DHT22;11000;50.360;7.582;2023-07-31T07:43:13;19.70;99.90
21678;DHT22;11000;50.360;7.582;2023-07-31T07:45:33;19.80;99.90
21678;DHT22;11000;50.360;7.582;2023-07-31T07:47:54;19.80;99.90
21678;DHT22;11000;50.360;7.582;2023-07-31T07:50:14;19.80;99.90
21678;DHT22;11000;50.360;7.582;2023-07-31T07:52:35;19.80;99.90
21678;DHT22;11000;50.360;7.582;2023-07-31T07:54:55;19.70;99.90
21678;DHT22;11000;50.360;7.582;2023-07-31T07:57:16;19.60;99.90
21678;DHT22;11000;50.360;7.582;2023-07-31T07:59:36;19.60;99.90
21678;DHT22;11000;50.360;7.582;2023-07-31T08:01:57;19.60;99.90
21678;DHT22;11000;50.360;7.582;2023-07-31T08:04:17;19.60;99.90
21678;DHT22;11000;50.360;7.582;2023-07-31T08:06:38;19.50;99.90
21678;DHT22;11000;50.360;7.582;2023-07-31T08:08:59;19.50;99.90
21678;DHT22;11000;50.360;7.582;2023-07-31T08:11:19;19.50;99.90
21678;DHT22;11000;50.360;7.582;2023-07-31T08:13:40;19.50;99.90
21678;DHT22;11000;50.360;7.582;2023-07-31T08:16:00;19.50;99.90
21678;DHT22;11000;50.360;7.582;2023-07-31T08:18:21;19.40;99.90
21678;DHT22;11000;50.360;7.582;2023-07-31T08:20:44;19.30;99.90
21678;DHT22;11000;50.360;7.582;2023-07-31T08:23:05;19.30;99.90
21678;DHT22;11000;50.360;7.582;2023-07-31T08:25:25;19.20;99.90
21678;DHT22;11000;50.360;7.582;2023-07-31T08:27:46;19.20;99.90
21678;DHT22;11000;50.360;7.582;2023-07-31T08:30:07;19.10;99.90
21678;DHT22;11000;50.360;7.582;2023-07-31T08:32:28;19.00;99.90
21678;DHT22;11000;50.360;7.582;2023-07-31T08:34:48;18.90;99.90
21678;DHT22;11000;50.360;7.582;2023-07-31T08:37:09;18.90;99.90
21678;DHT22;11000;50.360;7.582;2023-07-31T08:39:31;18.90;99.90
21678;DHT22;11000;50.360;7.582;2023-07-31T08:41:58;18.80;99.90
21678;DHT22;11000;50.360;7.582;2023-07-31T08:44:18;18.80;99.90
21678;DHT22;11000;50.360;7.582;2023-07-31T08:46:39;18.80;99.90
21678;DHT22;11000;50.360;7.582;2023-07-31T08:49:04;18.90;99.90
21678;DHT22;11000;50.360;7.582;2023-07-31T08:51:26;18.90;99.90
21678;DHT22;11000;50.360;7.582;2023-07-31T08:53:47;18.90;99.90
21678;DHT22;11000;50.360;7.582;2023-07-31T08:56:08;19.00;99.90
21678;DHT22;11000;50.360;7.582;2023-07-31T08:58:31;19.00;99.90
21678;DHT22;11000;50.360;7.582;2023-07-31T09:00:52;19.00;99.90
21678;DHT22;11000;50.360;7.582;2023-07-31T09:03:17;19.00;99.90
21678;DHT22;11000;50.360;7.582;2023-07-31T09:05:39;19.10;99.90
21678;DHT22;11000;50.360;7.582;2023-07-31T09:08:04;19.10;99.90
21678;DHT22;11000;50.360;7.582;2023-07-31T09:10:25;19.20;99.90
21678;DHT22;11000;50.360;7.582;2023-07-31T09:12:46;19.20;99.90
21678;DHT22;11000;50.360;7.582;2023-07-31T09:15:07;19.20;99.90
21678;DHT22;11000;50.360;7.582;2023-07-31T09:17:33;19.30;99.90
21678;DHT22;11000;50.360;7.582;2023-07-31T09:19:54;19.30;99.90
21678;DHT22;11000;50.360;7.582;2023-07-31T09:22:14;19.30;99.90
21678;DHT22;11000;50.360;7.582;2023-07-31T09:24:35;19.40;99.90
21678;DHT22;11000;50.360;7.582;2023-07-31T09:26:57;19.40;99.90
21678;DHT22;11000;50.360;7.582;2023-07-31T09:29:19;19.40;99.90
21678;DHT22;11000;50.360;7.582;2023-07-31T09:31:42;19.50;99.90
21678;DHT22;11000;50.360;7.582;2023-07-31T09:34:02;19.50;99.90
21678;DHT22;11000;50.360;7.582;2023-07-31T09:36:23;19.60;99.90
21678;DHT22;11000;50.360;7.582;2023-07-31T09:38:44;19.80;99.90
21678;DHT22;11000;50.360;7.582;2023-07-31T09:41:05;19.90;99.90
21678;DHT22;11000;50.360;7.582;2023-07-31T09:43:28;20.10;99.90
21678;DHT22;11000;50.360;7.582;2023-07-31T09:45:55;20.20;99.90
21678;DHT22;11000;50.360;7.582;2023-07-31T09:48:17;20.40;99.90
21678;DHT22;11000;50.360;7.582;2023-07-31T09:50:39;20.60;99.90
21678;DHT22;11000;50.360;7.582;2023-07-31T09:53:00;20.80;99.90
21678;DHT22;11000;50.360;7.582;2023-07-31T09:55:20;21.00;99.90
21678;DHT22;11000;50.360;7.582;2023-07-31T09:57:44;21.10;99.90
21678;DHT22;11000;50.360;7.582;2023-07-31T10:00:05;21.20;99.90
21678;DHT22;11000;50.360;7.582;2023-07-31T10:02:27;21.30;99.90
21678;DHT22;11000;50.360;7.582;2023-07-31T10:04:49;21.40;99.90
21678;DHT22;11000;50.360;7.582;2023-07-31T10:07:11;21.40;99.90
21678;DHT22;11000;50.360;7.582;2023-07-31T10:09:33;21.40;99.90
21678;DHT22;11000;50.360;7.582;2023-07-31T10:12:00;21.40;99.90
21678;DHT22;11000;50.360;7.582;2023-07-31T10:14:21;21.60;99.90
21678;DHT22;11000;50.360;7.582;2023-07-31T10:16:44;21.70;99.90
21678;DHT22;11000;50.360;7.582;2023-07-31T10:19:05;21.60;99.90
21678;DHT22;11000;50.360;7.582;2023-07-31T10:21:25;21.60;99.90
21678;DHT22;11000;50.360;7.582;2023-07-31T10:23:46;21.60;99.90
21678;DHT22;11000;50.360;7.582;2023-07-31T10:26:07;21.50;99.90
21678;DHT22;11000;50.360;7.582;2023-07-31T10:28:29;21.60;99.90
21678;DHT22;11000;50.360;7.582;2023-07-31T10:30:54;21.60;99.90
21678;DHT22;11000;50.360;7.582;2023-07-31T10:33:15;21.50;99.90
21678;DHT22;11000;50.360;7.582;2023-07-31T10:35:36;21.50;99.90
21678;DHT22;11000;50.360;7.582;2023-07-31T10:38:09;21.60;99.90
21678;DHT22;11000;50.360;7.582;2023-07-31T10:40:31;21.70;99.90
21678;DHT22;11000;50.360;7.582;2023-07-31T10:42:55;22.10;99.90
21678;DHT22;11000;50.360;7.582;2023-07-31T10:45:26;22.80;99.90
21678;DHT22;11000;50.360;7.582;2023-07-31T10:48:01;23.20;99.90
21678;DHT22;11000;50.360;7.582;2023-07-31T10:50:22;23.20;99.90
21678;DHT22;11000;50.360;7.582;2023-07-31T10:52:48;23.20;99.90
21678;DHT22;11000;50.360;7.582;2023-07-31T10:55:23;23.10;99.90
21678;DHT22;11000;50.360;7.582;2023-07-31T10:57:50;23.10;99.90
21678;DHT22;11000;50.360;7.582;2023-07-31T11:00:23;23.00;99.90
21678;DHT22;11000;50.360;7.582;2023-07-31T11:02:56;23.00;99.90
21678;DHT22;11000;50.360;7.582;2023-07-31T11:05:18;22.70;99.90
21678;DHT22;11000;50.360;7.582;2023-07-31T11:07:49;22.60;99.90
21678;DHT22;11000;50.360;7.582;2023-07-31T11:10:10;22.60;99.90
21678;DHT22;11000;50.360;7.582;2023-07-31T11:12:30;22.60;99.90
21678;DHT22;11000;50.360;7.582;2023-07-31T11:14:56;22.60;99.90
21678;DHT22;11000;50.360;7.582;2023-07-31T11:17:17;22.60;99.90
21678;DHT22;11000;50.360;7.582;2023-07-31T11:19:38;22.70;99.90
21678;DHT22;11000;50.360;7.582;2023-07-31T11:21:58;22.70;99.90
21678;DHT22;11000;50.360;7.582;2023-07-31T11:24:19;22.80;99.90
21678;DHT22;11000;50.360;7.582;2023-07-31T11:26:49;22.90;99.90
21678;DHT22;11000;50.360;7.582;2023-07-31T11:29:11;22.90;99.90
21678;DHT22;11000;50.360;7.582;2023-07-31T11:31:32;22.90;99.90
21678;DHT22;11000;50.360;7.582;2023-07-31T11:34:07;22.90;99.90
21678;DHT22;11000;50.360;7.582;2023-07-31T11:36:28;22.90;99.90
21678;DHT22;11000;50.360;7.582;2023-07-31T11:39:04;23.30;99.90
21678;DHT22;11000;50.360;7.582;2023-07-31T11:41:29;23.50;99.90
21678;DHT22;11000;50.360;7.582;2023-07-31T11:43:59;23.70;99.90
21678;DHT22;11000;50.360;7.582;2023-07-31T11:46:20;23.60;99.90
21678;DHT22;11000;50.360;7.582;2023-07-31T11:48:41;23.60;99.90
21678;DHT22;11000;50.360;7.582;2023-07-31T11:51:07;23.70;99.90
21678;DHT22;11000;50.360;7.582;2023-07-31T11:53:42;24.00;99.90
21678;DHT22;11000;50.360;7.582;2023-07-31T11:56:04;24.30;99.90
21678;DHT22;11000;50.360;7.582;2023-07-31T11:58:27;24.30;99.90
21678;DHT22;11000;50.360;7.582;2023-07-31T12:00:48;24.40;99.90
21678;DHT22;11000;50.360;7.582;2023-07-31T12:03:10;24.60;99.90
21678;DHT22;11000;50.360;7.582;2023-07-31T12:05:30;24.70;99.90
21678;DHT22;11000;50.360;7.582;2023-07-31T12:07:53;24.80;99.90
21678;DHT22;11000;50.360;7.582;2023-07-31T12:10:31;24.80;99.90
21678;DHT22;11000;50.360;7.582;2023-07-31T12:13:12;24.80;99.90
21678;DHT22;11000;50.360;7.582;2023-07-31T12:15:40;24.90;99.90
21678;DHT22;11000;50.360;7.582;2023-07-31T12:18:05;24.90;99.90
21678;DHT22;11000;50.360;7.582;2023-07-31T12:20:26;25.30;99.90
21678;DHT22;11000;50.360;7.582;2023-07-31T12:22:46;25.30;99.90
21678;DHT22;11000;50.360;7.582;2023-07-31T12:25:07;25.20;99.90
21678;DHT22;11000;50.360;7.582;2023-07-31T12:27:32;25.20;99.90
21678;DHT22;11000;50.360;7.582;2023-07-31T12:29:53;25.10;99.90
21678;DHT22;11000;50.360;7.582;2023-07-31T12:32:21;24.60;99.90
21678;DHT22;11000;50.360;7.582;2023-07-31T12:34:42;24.30;99.90
21678;DHT22;11000;50.360;7.582;2023-07-31T12:37:06;24.10;99.90
21678;DHT22;11000;50.360;7.582;2023-07-31T12:39:26;24.10;99.90
21678;DHT22;11000;50.360;7.582;2023-07-31T12:41:47;24.10;99.90
21678;DHT22;11000;50.360;7.582;2023-07-31T12:44:07;24.00;99.90
21678;DHT22;11000;50.360;7.582;2023-07-31T12:46:27;24.00;99.90
21678;DHT22;11000;50.360;7.582;2023-07-31T12:48:48;23.90;99.90
21678;DHT22;11000;50.360;7.582;2023-07-31T12:51:08;23.70;99.90
21678;DHT22;11000;50.360;7.582;2023-07-31T12:53:29;23.70;99.90
21678;DHT22;11000;50.360;7.582;2023-07-31T12:55:50;23.70;99.90
21678;DHT22;11000;50.360;7.582;2023-07-31T12:58:10;23.60;99.90
21678;DHT22;11000;50.360;7.582;2023-07-31T13:00:31;23.50;99.90
21678;DHT22;11000;50.360;7.582;2023-07-31T13:02:52;23.20;99.90
21678;DHT22;11000;50.360;7.582;2023-07-31T13:05:13;23.20;99.90
21678;DHT22;11000;50.360;7.582;2023-07-31T13:07:34;23.10;99.90
21678;DHT22;11000;50.360;7.582;2023-07-31T13:09:54;23.00;99.90
21678;DHT22;11000;50.360;7.582;2023-07-31T13:12:15;23.00;99.90
21678;DHT22;11000;50.360;7.582;2023-07-31T13:14:35;23.10;99.90
21678;DHT22;11000;50.360;7.582;2023-07-31T13:16:56;23.10;99.90
21678;DHT22;11000;50.360;7.582;2023-07-31T13:19:16;23.10;99.90
21678;DHT22;11000;50.360;7.582;2023-07-31T13:21:37;23.10;99.90
21678;DHT22;11000;50.360;7.582;2023-07-31T13:23:58;22.90;99.90
21678;DHT22;11000;50.360;7.582;2023-07-31T13:26:21;22.90;99.90
21678;DHT22;11000;50.360;7.582;2023-07-31T13:28:41;22.80;99.90
21678;DHT22;11000;50.360;7.582;2023-07-31T13:31:02;22.70;99.90
21678;DHT22;11000;50.360;7.582;2023-07-31T13:33:22;22.60;99.90
21678;DHT22;11000;50.360;7.582;2023-07-31T13:35:43;22.50;99.90
21678;DHT22;11000;50.360;7.582;2023-07-31T13:38:03;22.40;99.90
21678;DHT22;11000;50.360;7.582;2023-07-31T13:40:23;22.50;99.90
21678;DHT22;11000;50.360;7.582;2023-07-31T13:42:44;22.40;99.90
21678;DHT22;11000;50.360;7.582;2023-07-31T13:45:06;22.40;99.90
21678;DHT22;11000;50.360;7.582;2023-07-31T13:47:26;22.40;99.90
21678;DHT22;11000;50.360;7.582;2023-07-31T13:49:47;22.30;99.90
21678;DHT22;11000;50.360;7.582;2023-07-31T13:52:07;22.40;99.90
21678;DHT22;11000;50.360;7.582;2023-07-31T13:54:28;22.50;99.90
21678;DHT22;11000;50.360;7.582;2023-07-31T13:56:48;22.50;99.90
21678;DHT22;11000;50.360;7.582;2023-07-31T13:59:10;22.60;99.90
21678;DHT22;11000;50.360;7.582;2023-07-31T14:01:31;22.60;99.90
21678;DHT22;11000;50.360;7.582;2023-07-31T14:03:52;22.50;99.90
21678;DHT22;11000;50.360;7.582;2023-07-31T14:06:13;22.50;99.90
21678;DHT22;11000;50.360;7.582;2023-07-31T14:08:34;22.70;99.90
21678;DHT22;11000;50.360;7.582;2023-07-31T14:10:55;22.50;99.90
21678;DHT22;11000;50.360;7.582;2023-07-31T14:13:16;22.40;99.90
21678;DHT22;11000;50.360;7.582;2023-07-31T14:15:36;22.30;99.90
21678;DHT22;11000;50.360;7.582;2023-07-31T14:17:57;22.20;99.90
21678;DHT22;11000;50.360;7.582;2023-07-31T14:20:17;22.20;99.90
21678;DHT22;11000;50.360;7.582;2023-07-31T14:22:38;22.00;99.90
21678;DHT22;11000;50.360;7.582;2023-07-31T14:24:59;21.90;99.90
21678;DHT22;11000;50.360;7.582;2023-07-31T14:27:19;22.00;99.90
21678;DHT22;11000;50.360;7.582;2023-07-31T14:29:40;22.10;99.90
21678;DHT22;11000;50.360;7.582;2023-07-31T14:32:00;22.30;99.90
21678;DHT22;11000;50.360;7.582;2023-07-31T14:34:22;22.40;99.90
21678;DHT22;11000;50.360;7.582;2023-07-31T14:36:48;22.40;99.90
21678;DHT22;11000;50.360;7.582;2023-07-31T14:39:09;22.30;99.90
21678;DHT22;11000;50.360;7.582;2023-07-31T14:41:29;22.20;99.90
21678;DHT22;11000;50.360;7.582;2023-07-31T14:43:50;22.20;99.90
21678;DHT22;11000;50.360;7.582;2023-07-31T14:46:10;22.20;99.90
21678;DHT22;11000;50.360;7.582;2023-07-31T14:48:31;22.10;99.90
21678;DHT22;11000;50.360;7.582;2023-07-31T14:50:52;22.00;99.90
21678;DHT22;11000;50.360;7.582;2023-07-31T14:53:12;21.90;99.90
21678;DHT22;11000;50.360;7.582;2023-07-31T14:55:33;21.90;99.90
21678;DHT22;11000;50.360;7.582;2023-07-31T14:57:53;21.80;99.90